Time;durP1;ratioP1;P1;durP2;ratioP2;P2;SDS_P1;SDS_P2;PMS_P1;PMS_P2;Temp;Humidity;BMP_temperature;BMP_pressure;BME280_temperature;BME280_humidity;BME280_pressure;Samples;Min_cycle;Max_cycle;Signal;HPM_P1;HPM_P2
2022/07/22 00:01:52;;;;;;;;;;;;;;;16.04;87.86;102124.28;5069735;28;20365;-62
2022/07/22 00:04:17;;;;;;;;;;;;;;;16.03;88.11;102114.56;5070222;28;19960;-62
2022/07/22 00:06:42;;;;;;;;;;;;;;;16.04;87.78;102110.91;5062311;28;19927;-62
2022/07/22 00:09:07;;;;;;;;;;;;;;;16.05;87.55;102107.22;5067389;28;19924;-62
2022/07/22 00:11:33;;;;;;;;;;;;;;;16.08;87.79;102113.06;5066389;28;20306;-62
2022/07/22 00:13:58;;;;;;;;;;;;;;;16.08;87.92;102109.56;5073813;28;19920;-62
2022/07/22 00:16:23;;;;;;;;;;;;;;;16.06;87.48;102103.53;5073218;28;20024;-62
2022/07/22 00:18:48;;;;;;;;;;;;;;;16.07;87.56;102105.19;5070960;28;19963;-62
2022/07/22 00:21:13;;;;;;;;;;;;;;;16.08;87.73;102109.56;5074875;28;19929;-63
2022/07/22 00:23:38;;;;;;;;;;;;;;;16.07;87.85;102110.53;5069874;28;19929;-62
2022/07/22 00:26:04;;;;;;;;;;;;;;;16.06;87.71;102109.72;5066547;28;19927;-62
2022/07/22 00:28:29;;;;;;;;;;;;;;;16.10;87.73;102112.91;5073552;28;19920;-63
2022/07/22 00:30:54;;;;;;;;;;;;;;;16.07;87.92;102111.38;5069943;28;19949;-62
2022/07/22 00:33:19;;;;;;;;;;;;;;;16.04;87.63;102105.53;5071460;28;19944;-63
2022/07/22 00:35:46;;;;;;;;;;;;;;;16.04;87.59;102109.03;5073207;28;21272;-62
2022/07/22 00:38:11;;;;;;;;;;;;;;;16.06;87.85;102107.06;5073336;28;19931;-62
2022/07/22 00:40:37;;;;;;;;;;;;;;;16.06;87.69;102108.88;5071337;28;20330;-62
2022/07/22 00:43:02;;;;;;;;;;;;;;;16.05;87.39;102102.72;5073093;28;19964;-62
2022/07/22 00:45:27;;;;;;;;;;;;;;;16.04;87.77;102108.22;5063803;28;19963;-62
2022/07/22 00:47:52;;;;;;;;;;;;;;;16.05;87.46;102108.06;5069823;28;20019;-62
2022/07/22 00:50:19;;;;;;;;;;;;;;;16.07;87.68;102115.91;5072035;28;20363;-63
2022/07/22 00:52:44;;;;;;;;;;;;;;;16.06;87.48;102103.53;5072602;28;20012;-62
2022/07/22 00:55:10;;;;;;;;;;;;;;;16.06;87.29;102108.88;5072150;28;20003;-62
2022/07/22 00:57:35;;;;;;;;;;;;;;;16.03;87.51;102094.00;5070493;28;19920;-62
2022/07/22 01:00:00;;;;;;;;;;;;;;;16.00;87.53;102089.81;5073065;28;20429;-62
2022/07/22 01:02:25;;;;;;;;;;;;;;;15.97;87.70;102092.84;5072796;28;19927;-62
2022/07/22 01:04:50;;;;;;;;;;;;;;;15.95;87.62;102092.19;5066925;28;19921;-62
2022/07/22 01:07:16;;;;;;;;;;;;;;;15.94;87.57;102092.34;5073216;28;19920;-62
2022/07/22 01:09:45;;;;;;;;;;;;;;;15.93;87.85;102088.00;5074282;28;20028;-62
2022/07/22 01:12:10;;;;;;;;;;;;;;;15.95;87.51;102092.19;5069810;28;19920;-62
2022/07/22 01:14:35;;;;;;;;;;;;;;;15.98;87.47;102093.66;5072985;28;19928;-62
2022/07/22 01:17:01;;;;;;;;;;;;;;;15.97;87.27;102087.47;5069670;28;19928;-62
2022/07/22 01:19:26;;;;;;;;;;;;;;;15.99;87.54;102087.31;5069766;28;20593;-62
2022/07/22 01:21:51;;;;;;;;;;;;;;;16.01;87.74;102090.66;5063784;28;19978;-62
2022/07/22 01:24:16;;;;;;;;;;;;;;;16.02;87.42;102083.47;5067955;28;20267;-62
2022/07/22 01:26:42;;;;;;;;;;;;;;;16.04;87.22;102087.63;5065573;28;20024;-62
2022/07/22 01:29:07;;;;;;;;;;;;;;;16.04;87.50;102078.78;5071991;28;20069;-62
2022/07/22 01:31:32;;;;;;;;;;;;;;;15.98;87.11;102081.13;5071077;28;19943;-62
2022/07/22 01:33:58;;;;;;;;;;;;;;;15.95;87.66;102081.47;5073370;28;20014;-62
2022/07/22 01:36:23;;;;;;;;;;;;;;;15.89;87.07;102081.25;5070380;28;19924;-62
2022/07/22 01:38:49;;;;;;;;;;;;;;;15.84;87.04;102084.44;5063790;28;19920;-62
2022/07/22 01:41:14;;;;;;;;;;;;;;;15.79;87.09;102078.75;5070643;28;19931;-62
2022/07/22 01:43:39;;;;;;;;;;;;;;;15.72;87.22;102086.59;5070312;28;20272;-62
2022/07/22 01:46:04;;;;;;;;;;;;;;;15.69;87.24;102086.94;5070722;28;20422;-62
2022/07/22 01:48:29;;;;;;;;;;;;;;;15.68;87.25;102087.91;5064860;28;19967;-62
2022/07/22 01:50:55;;;;;;;;;;;;;;;15.67;87.04;102084.41;5072070;28;19916;-62
2022/07/22 01:53:20;;;;;;;;;;;;;;;15.66;87.42;102088.09;5059587;28;19974;-62
2022/07/22 01:55:45;;;;;;;;;;;;;;;15.63;87.26;102088.41;5070997;28;19920;-62
2022/07/22 01:58:11;;;;;;;;;;;;;;;15.61;86.94;102090.41;5071086;28;19927;-62
2022/07/22 02:00:38;;;;;;;;;;;;;;;15.57;87.36;102089.06;5067591;28;19920;-62
2022/07/22 02:03:04;;;;;;;;;;;;;;;15.54;87.04;102100.09;5071580;28;19956;-62
2022/07/22 02:05:30;;;;;;;;;;;;;;;15.52;87.13;102086.91;5068945;28;19966;-63
2022/07/22 02:08:02;;;;;;;;;;;;;;;15.52;86.93;102076.19;5068359;28;19928;-63
2022/07/22 02:10:27;;;;;;;;;;;;;;;15.52;87.21;102075.34;5070048;28;19956;-62
2022/07/22 02:12:53;;;;;;;;;;;;;;;15.51;87.48;102074.53;5067613;28;19970;-62
2022/07/22 02:15:18;;;;;;;;;;;;;;;15.51;87.74;102082.56;5070020;28;19927;-62
2022/07/22 02:17:43;;;;;;;;;;;;;;;15.46;87.77;102077.69;5060288;28;19921;-62
2022/07/22 02:20:08;;;;;;;;;;;;;;;15.45;87.32;102076.00;5070739;28;19920;-62
2022/07/22 02:22:34;;;;;;;;;;;;;;;15.48;87.33;102080.19;5069698;28;19921;-62
2022/07/22 02:24:59;;;;;;;;;;;;;;;15.51;87.35;102073.69;5069086;28;19925;-62
2022/07/22 02:27:24;;;;;;;;;;;;;;;15.54;87.77;102073.38;5070070;28;19939;-62
2022/07/22 02:29:49;;;;;;;;;;;;;;;15.55;87.58;102078.53;5061407;28;19928;-63
2022/07/22 02:32:14;;;;;;;;;;;;;;;15.56;87.30;102082.06;5070024;28;19962;-62
2022/07/22 02:34:40;;;;;;;;;;;;;;;15.55;87.62;102083.06;5068609;28;19920;-63
2022/07/22 02:37:05;;;;;;;;;;;;;;;15.55;87.65;102081.22;5070046;28;19920;-62
2022/07/22 02:39:30;;;;;;;;;;;;;;;15.53;87.60;102082.38;5069472;28;19921;-63
2022/07/22 02:41:55;;;;;;;;;;;;;;;15.52;87.39;102080.69;5062427;28;20371;-62
2022/07/22 02:44:20;;;;;;;;;;;;;;;15.51;87.67;102074.53;5068015;28;19921;-62
2022/07/22 02:46:46;;;;;;;;;;;;;;;15.52;87.51;102075.34;5065125;28;19928;-62
2022/07/22 02:49:11;;;;;;;;;;;;;;;15.51;87.94;102066.50;5071844;28;19920;-62
2022/07/22 02:51:37;;;;;;;;;;;;;;;15.52;87.85;102070.00;5065633;28;19973;-62
2022/07/22 02:54:02;;;;;;;;;;;;;;;15.52;87.93;102065.50;5070200;28;19943;-62
2022/07/22 02:56:27;;;;;;;;;;;;;;;15.53;87.62;102066.31;5070888;28;19924;-62
2022/07/22 02:58:52;;;;;;;;;;;;;;;15.53;87.48;102066.31;5068577;28;20862;-62
2022/07/22 03:01:18;;;;;;;;;;;;;;;15.56;87.71;102066.00;5067266;28;19977;-62
2022/07/22 03:03:44;;;;;;;;;;;;;;;15.59;87.53;102065.66;5067799;28;20270;-62
2022/07/22 03:06:09;;;;;;;;;;;;;;;15.59;87.68;102063.00;5069225;28;19998;-62
2022/07/22 03:08:35;;;;;;;;;;;;;;;15.58;87.77;102058.66;5070632;28;19921;-62
2022/07/22 03:11:00;;;;;;;;;;;;;;;15.58;87.75;102053.31;5068054;28;19948;-62
2022/07/22 03:13:26;;;;;;;;;;;;;;;15.59;87.52;102054.97;5067497;28;19955;-62
2022/07/22 03:15:51;;;;;;;;;;;;;;;15.60;87.69;102056.66;5071527;28;20028;-62
2022/07/22 03:18:16;;;;;;;;;;;;;;;15.59;87.81;102049.63;5066399;28;20543;-63
2022/07/22 03:20:41;;;;;;;;;;;;;;;15.59;87.75;102054.97;5066762;28;19936;-62
2022/07/22 03:23:06;;;;;;;;;;;;;;;15.59;88.09;102049.63;5066192;28;19920;-62
2022/07/22 03:25:32;;;;;;;;;;;;;;;15.57;87.55;102051.63;5067341;28;20336;-62
2022/07/22 03:27:57;;;;;;;;;;;;;;;15.58;87.66;102047.97;5070534;28;19920;-62
2022/07/22 03:30:23;;;;;;;;;;;;;;;15.59;87.68;102049.63;5064230;28;19925;-62
2022/07/22 03:32:48;;;;;;;;;;;;;;;15.62;87.14;102043.97;5068949;28;19920;-62
2022/07/22 03:35:14;;;;;;;;;;;;;;;15.60;87.11;102054.81;5068134;28;19944;-62
2022/07/22 03:37:39;;;;;;;;;;;;;;;15.60;87.38;102051.31;5065856;28;20276;-62
2022/07/22 03:40:04;;;;;;;;;;;;;;;15.57;87.44;102046.28;5066770;28;19920;-62
2022/07/22 03:42:30;;;;;;;;;;;;;;;15.51;87.46;102049.63;5067826;28;19959;-62
2022/07/22 03:44:55;;;;;;;;;;;;;;;15.49;87.17;102047.13;5065999;28;19931;-62
2022/07/22 03:47:22;;;;;;;;;;;;;;;15.48;87.60;102058.00;5065599;28;20663;-62
2022/07/22 03:49:47;;;;;;;;;;;;;;;15.46;87.40;102058.16;5070101;28;19921;-62
2022/07/22 03:52:13;;;;;;;;;;;;;;;15.43;87.22;102061.97;5071388;28;19996;-62
2022/07/22 03:54:38;;;;;;;;;;;;;;;15.45;87.48;102068.00;5068694;28;20432;-62
2022/07/22 03:57:03;;;;;;;;;;;;;;;15.44;87.54;102063.66;5068985;28;19924;-62
2022/07/22 03:59:28;;;;;;;;;;;;;;;15.44;87.57;102073.50;5066705;28;19924;-62
2022/07/22 04:01:53;;;;;;;;;;;;;;;15.40;87.41;102067.63;5060880;28;19921;-62
2022/07/22 04:04:18;;;;;;;;;;;;;;;15.40;87.72;102064.97;5061142;28;19916;-62
2022/07/22 04:06:45;;;;;;;;;;;;;;;15.39;87.37;102065.16;5062555;28;20066;-62
2022/07/22 04:09:10;;;;;;;;;;;;;;;15.37;87.64;102067.97;5066993;28;20330;-62
2022/07/22 04:11:35;;;;;;;;;;;;;;;15.37;87.85;102072.47;5065410;28;19920;-62
2022/07/22 04:14:01;;;;;;;;;;;;;;;15.37;87.69;102078.69;5064816;28;20554;-62
2022/07/22 04:16:26;;;;;;;;;;;;;;;15.39;87.56;102079.34;5069517;28;20363;-62
2022/07/22 04:18:51;;;;;;;;;;;;;;;15.40;87.85;102067.63;5058898;28;20488;-62
2022/07/22 04:21:16;;;;;;;;;;;;;;;15.39;87.41;102078.53;5066698;28;19932;-63
2022/07/22 04:23:42;;;;;;;;;;;;;;;15.41;87.79;102066.66;5063445;28;19991;-62
2022/07/22 04:26:07;;;;;;;;;;;;;;;15.45;87.47;102070.66;5069014;28;19924;-62
2022/07/22 04:28:33;;;;;;;;;;;;;;;15.45;87.34;102073.34;5063744;28;19920;-63
2022/07/22 04:30:58;;;;;;;;;;;;;;;15.48;87.70;102068.69;5064437;28;19982;-62
2022/07/22 04:33:24;;;;;;;;;;;;;;;15.48;87.36;102068.69;5069806;28;20003;-63
2022/07/22 04:35:49;;;;;;;;;;;;;;;15.48;87.65;102069.50;5067542;28;20368;-62
2022/07/22 04:38:16;;;;;;;;;;;;;;;15.50;87.31;102062.19;5070791;28;19925;-62
2022/07/22 04:40:41;;;;;;;;;;;;;;;15.51;87.96;102068.34;5069683;28;19927;-62
2022/07/22 04:43:06;;;;;;;;;;;;;;;15.45;87.61;102059.97;5070077;28;20000;-62
2022/07/22 04:45:32;;;;;;;;;;;;;;;15.49;87.84;102068.50;5061624;28;19947;-62
2022/07/22 04:47:57;;;;;;;;;;;;;;;15.52;87.56;102064.66;5073601;28;19978;-63
2022/07/22 04:50:22;;;;;;;;;;;;;;;15.54;87.77;102063.50;5069755;28;19931;-62
2022/07/22 04:52:47;;;;;;;;;;;;;;;15.55;87.64;102059.00;5073177;28;20271;-62
2022/07/22 04:55:12;;;;;;;;;;;;;;;15.56;87.60;102055.31;5073910;28;19928;-62
2022/07/22 04:57:38;;;;;;;;;;;;;;;15.57;88.02;102048.97;5075083;28;19920;-62
2022/07/22 05:00:03;;;;;;;;;;;;;;;15.61;87.39;102055.66;5069853;28;20339;-62
2022/07/22 05:02:28;;;;;;;;;;;;;;;15.62;87.82;102048.47;5071213;28;19921;-62
2022/07/22 05:04:54;;;;;;;;;;;;;;;15.63;88.00;102056.31;5070658;28;19954;-58
2022/07/22 05:07:19;;;;;;;;;;;;;;;15.62;87.62;102060.00;5071683;28;20019;-61
2022/07/22 05:09:45;;;;;;;;;;;;;;;15.66;87.50;102061.34;5068350;28;19925;-62
2022/07/22 05:12:10;;;;;;;;;;;;;;;15.68;87.42;102054.00;5065135;28;20476;-62
2022/07/22 05:14:35;;;;;;;;;;;;;;;15.70;87.26;102046.63;5069085;28;20505;-62
2022/07/22 05:17:00;;;;;;;;;;;;;;;15.69;88.07;102044.97;5065664;28;20387;-62
2022/07/22 05:19:26;;;;;;;;;;;;;;;15.70;87.46;102054.66;5068110;28;19974;-62
2022/07/22 05:21:51;;;;;;;;;;;;;;;15.72;87.81;102043.81;5070852;28;19916;-62
2022/07/22 05:24:16;;;;;;;;;;;;;;;15.73;87.94;102043.66;5066743;28;20306;-62
2022/07/22 05:26:41;;;;;;;;;;;;;;;15.81;87.54;102047.31;5071224;28;19927;-64
2022/07/22 05:29:06;;;;;;;;;;;;;;;15.80;87.52;102046.50;5065819;28;19920;-63
2022/07/22 05:31:32;;;;;;;;;;;;;;;15.86;87.38;102053.00;5062708;28;20271;-62
2022/07/22 05:33:57;;;;;;;;;;;;;;;15.90;87.54;102051.69;5068330;28;20298;-62
2022/07/22 05:36:22;;;;;;;;;;;;;;;15.94;87.53;102050.34;5062675;28;20314;-62
2022/07/22 05:38:47;;;;;;;;;;;;;;;15.96;87.55;102055.53;5068926;28;19921;-62
2022/07/22 05:41:13;;;;;;;;;;;;;;;15.99;87.76;102048.00;5067819;28;20049;-62
2022/07/22 05:43:38;;;;;;;;;;;;;;;16.03;87.95;102050.38;5066866;28;20577;-62
2022/07/22 05:46:03;;;;;;;;;;;;;;;16.08;87.28;102053.38;5067273;28;19931;-62
2022/07/22 05:48:28;;;;;;;;;;;;;;;16.13;87.66;102064.38;5068831;28;19994;-62
2022/07/22 05:50:53;;;;;;;;;;;;;;;16.18;88.64;102053.19;5065868;28;20458;-62
2022/07/22 05:53:19;;;;;;;;;;;;;;;16.22;87.90;102055.34;5063949;28;20365;-62
2022/07/22 05:55:44;;;;;;;;;;;;;;;16.24;87.77;102055.19;5067328;28;19917;-62
2022/07/22 05:58:09;;;;;;;;;;;;;;;16.30;87.53;102054.50;5066290;28;19947;-62
2022/07/22 06:00:34;;;;;;;;;;;;;;;16.32;87.75;102055.16;5065644;28;19932;-63
2022/07/22 06:02:59;;;;;;;;;;;;;;;16.40;87.56;102057.00;5065276;28;19924;-63
2022/07/22 06:05:25;;;;;;;;;;;;;;;16.46;87.43;102048.28;5065260;28;20630;-62
2022/07/22 06:07:50;;;;;;;;;;;;;;;16.54;87.40;102050.94;5065226;28;19935;-62
2022/07/22 06:10:15;;;;;;;;;;;;;;;16.62;86.84;102054.63;5066244;28;19924;-62
2022/07/22 06:12:40;;;;;;;;;;;;;;;16.74;86.77;102047.88;5066887;28;19924;-61
2022/07/22 06:15:06;;;;;;;;;;;;;;;16.87;86.88;102051.84;5065853;28;19963;-63
2022/07/22 06:17:32;;;;;;;;;;;;;;;16.99;86.75;102061.16;5065164;28;20367;-62
2022/07/22 06:19:57;;;;;;;;;;;;;;;17.10;86.78;102062.66;5062550;28;19924;-62
2022/07/22 06:22:22;;;;;;;;;;;;;;;17.13;86.00;102061.47;5062442;28;19932;-62
2022/07/22 06:24:48;;;;;;;;;;;;;;;17.08;86.11;102056.66;5067544;28;19986;-63
2022/07/22 06:27:13;;;;;;;;;;;;;;;17.05;85.44;102055.16;5061944;28;19921;-62
2022/07/22 06:29:40;;;;;;;;;;;;;;;17.05;85.92;102048.94;5066995;28;19921;-62
2022/07/22 06:32:05;;;;;;;;;;;;;;;17.07;85.11;102053.13;5060457;28;19920;-62
2022/07/22 06:34:31;;;;;;;;;;;;;;;17.04;85.29;102058.84;5063216;28;19920;-62
2022/07/22 06:36:56;;;;;;;;;;;;;;;17.08;85.99;102052.09;5065834;28;19921;-62
2022/07/22 06:39:21;;;;;;;;;;;;;;;17.06;85.53;102051.44;5064150;28;19956;-62
2022/07/22 06:41:46;;;;;;;;;;;;;;;17.06;84.85;102055.97;5064932;28;20015;-62
2022/07/22 06:44:11;;;;;;;;;;;;;;;17.07;85.24;102053.13;5064602;28;19920;-62
2022/07/22 06:46:37;;;;;;;;;;;;;;;17.18;84.94;102054.56;5065368;28;19921;-62
2022/07/22 06:49:02;;;;;;;;;;;;;;;17.31;84.78;102048.63;5063366;28;19932;-62
2022/07/22 06:51:27;;;;;;;;;;;;;;;17.33;81.53;102051.97;5065811;28;19990;-62
2022/07/22 06:53:52;;;;;;;;;;;;;;;17.28;82.86;102054.38;5068619;28;20421;-62
2022/07/22 06:56:17;;;;;;;;;;;;;;;17.32;82.70;102055.66;5065280;28;19939;-62
2022/07/22 06:58:43;;;;;;;;;;;;;;;17.35;82.83;102059.84;5066519;28;20062;-63
2022/07/22 07:01:08;;;;;;;;;;;;;;;17.50;82.14;102062.59;5062571;28;19925;-62
2022/07/22 07:03:33;;;;;;;;;;;;;;;17.59;82.78;102053.50;5063497;28;19921;-62
2022/07/22 07:05:58;;;;;;;;;;;;;;;17.61;82.34;102059.50;5066366;28;20275;-62
2022/07/22 07:08:23;;;;;;;;;;;;;;;17.65;80.03;102054.59;5062992;28;19956;-62
2022/07/22 07:10:48;;;;;;;;;;;;;;;17.71;81.78;102053.06;5066307;28;19977;-62
2022/07/22 07:13:14;;;;;;;;;;;;;;;17.67;81.88;102046.38;5062119;28;20389;-62
2022/07/22 07:15:39;;;;;;;;;;;;;;;17.67;80.30;102044.53;5063161;28;20637;-62
2022/07/22 07:18:04;;;;;;;;;;;;;;;17.65;79.50;102043.06;5065185;28;20038;-62
2022/07/22 07:20:29;;;;;;;;;;;;;;;17.68;79.92;102053.41;5064437;28;19921;-62
2022/07/22 07:22:55;;;;;;;;;;;;;;;17.86;80.17;102040.53;5065017;28;20310;-62
2022/07/22 07:25:20;;;;;;;;;;;;;;;17.94;78.60;102042.31;5064108;28;19986;-62
2022/07/22 07:27:45;;;;;;;;;;;;;;;18.10;79.21;102035.97;5061190;28;20352;-62
2022/07/22 07:30:11;;;;;;;;;;;;;;;18.13;77.15;102041.00;5061585;28;19927;-62
2022/07/22 07:32:37;;;;;;;;;;;;;;;18.12;77.40;102038.50;5067386;28;20417;-62
2022/07/22 07:35:02;;;;;;;;;;;;;;;18.11;73.63;102044.88;5060842;28;19952;-62
2022/07/22 07:37:28;;;;;;;;;;;;;;;18.07;76.69;102047.09;5063747;28;20412;-62
2022/07/22 07:39:53;;;;;;;;;;;;;;;18.00;76.12;102046.09;5064770;28;20409;-62
2022/07/22 07:42:18;;;;;;;;;;;;;;;17.92;76.93;102048.88;5072143;28;20045;-62
2022/07/22 07:44:43;;;;;;;;;;;;;;;17.98;74.05;102043.63;5059245;28;19978;-62
2022/07/22 07:47:09;;;;;;;;;;;;;;;17.84;74.95;102037.19;5061056;28;19966;-62
2022/07/22 07:49:34;;;;;;;;;;;;;;;17.82;73.64;102041.88;5065740;28;20245;-62
2022/07/22 07:51:59;;;;;;;;;;;;;;;17.81;75.21;102042.91;5074230;28;19971;-62
2022/07/22 07:54:24;;;;;;;;;;;;;;;17.78;76.00;102037.91;5067356;28;19917;-61
2022/07/22 07:56:49;;;;;;;;;;;;;;;17.74;75.55;102052.69;5069973;28;19924;-60
2022/07/22 07:59:16;;;;;;;;;;;;;;;17.74;76.10;102055.38;5065667;28;19924;-60
2022/07/22 08:01:42;;;;;;;;;;;;;;;17.71;75.62;102047.72;5064552;28;19924;-58
2022/07/22 08:04:07;;;;;;;;;;;;;;;17.73;75.99;102040.31;5063151;28;20288;-59
2022/07/22 08:06:32;;;;;;;;;;;;;;;17.75;75.71;102038.25;5063533;28;20372;-59
2022/07/22 08:08:57;;;;;;;;;;;;;;;17.87;75.83;102042.19;5065819;28;20007;-59
2022/07/22 08:11:22;;;;;;;;;;;;;;;18.12;73.48;102043.84;5068775;28;20335;-61
2022/07/22 08:13:48;;;;;;;;;;;;;;;18.14;72.67;102037.28;5068191;28;19978;-61
2022/07/22 08:16:13;;;;;;;;;;;;;;;18.33;73.56;102045.81;5068886;28;19920;-61
2022/07/22 08:18:38;;;;;;;;;;;;;;;18.48;73.54;102026.19;5066992;28;20368;-61
2022/07/22 08:21:03;;;;;;;;;;;;;;;18.65;69.91;102038.41;5066429;28;19928;-61
2022/07/22 08:23:28;;;;;;;;;;;;;;;18.79;72.08;102041.25;5070215;28;19927;-58
2022/07/22 08:25:54;;;;;;;;;;;;;;;19.01;72.00;102035.97;5071293;28;19944;-57
2022/07/22 08:28:19;;;;;;;;;;;;;;;19.10;68.81;102029.50;5071350;28;19967;-57
2022/07/22 08:30:44;;;;;;;;;;;;;;;19.18;67.91;102032.06;5070734;28;19927;-58
2022/07/22 08:33:10;;;;;;;;;;;;;;;19.18;69.38;102037.44;5074141;28;19920;-58
2022/07/22 08:35:35;;;;;;;;;;;;;;;19.15;69.44;102034.28;5066445;28;20001;-58
2022/07/22 08:38:00;;;;;;;;;;;;;;;19.07;69.19;102037.91;5070191;28;19951;-58
2022/07/22 08:40:26;;;;;;;;;;;;;;;18.92;69.26;102029.84;5064731;28;20303;-58
2022/07/22 08:42:51;;;;;;;;;;;;;;;18.80;69.86;102024.16;5069017;28;20368;-59
2022/07/22 08:45:17;;;;;;;;;;;;;;;18.72;69.99;102025.06;5071746;28;19947;-59
2022/07/22 08:47:44;;;;;;;;;;;;;;;18.64;68.64;102026.00;5073598;28;19927;-59
2022/07/22 08:50:09;;;;;;;;;;;;;;;18.63;70.54;102018.13;5073753;28;19927;-61
2022/07/22 08:52:34;;;;;;;;;;;;;;;18.64;69.33;102026.00;5073139;28;20459;-59
2022/07/22 08:55:02;;;;;;;;;;;;;;;18.56;70.12;102020.75;5072573;28;19923;-60
2022/07/22 08:57:27;;;;;;;;;;;;;;;18.55;69.98;102017.22;5072654;28;20462;-59
2022/07/22 08:59:54;;;;;;;;;;;;;;;18.57;70.39;102024.25;5072351;28;19916;-60
2022/07/22 09:02:19;;;;;;;;;;;;;;;18.56;69.96;102023.44;5071492;28;19921;-61
2022/07/22 09:04:51;;;;;;;;;;;;;;;18.56;69.65;102018.06;5071724;28;19921;-59
2022/07/22 09:07:23;;;;;;;;;;;;;;;18.54;67.84;102028.13;5069324;28;19931;-59
2022/07/22 09:09:49;;;;;;;;;;;;;;;18.52;69.54;102028.34;5071272;28;20010;-59
2022/07/22 09:12:14;;;;;;;;;;;;;;;18.59;68.34;102033.78;5070559;28;20070;-59
2022/07/22 09:14:47;;;;;;;;;;;;;;;18.67;68.05;102030.16;5072036;28;19950;-59
2022/07/22 09:17:30;;;;;;;;;;;;;;;18.82;68.13;102027.47;5071300;28;19973;-60
2022/07/22 09:19:56;;;;;;;;;;;;;;;19.04;68.01;102014.13;5067690;28;19927;-59
2022/07/22 09:22:35;;;;;;;;;;;;;;;19.31;67.47;102019.78;5069428;28;19927;-59
2022/07/22 09:25:17;;;;;;;;;;;;;;;19.43;67.44;102017.41;5072885;28;19924;-59
2022/07/22 09:27:42;;;;;;;;;;;;;;;19.51;65.89;102013.75;5073864;28;19925;-60
2022/07/22 09:30:11;;;;;;;;;;;;;;;19.55;67.03;102012.34;5073979;28;19981;-59
2022/07/22 09:32:43;;;;;;;;;;;;;;;19.68;67.27;102009.75;5071906;28;19924;-59
2022/07/22 09:35:08;;;;;;;;;;;;;;;19.81;66.97;102013.59;5087879;28;19931;-59
2022/07/22 09:37:33;;;;;;;;;;;;;;;19.84;63.83;102007.84;5069640;28;20481;-59
2022/07/22 09:40:12;;;;;;;;;;;;;;;19.89;65.72;102005.41;5070591;28;19967;-59
2022/07/22 09:42:48;;;;;;;;;;;;;;;20.07;63.54;101996.03;5071208;28;19920;-59
2022/07/22 09:45:13;;;;;;;;;;;;;;;20.25;63.13;101993.66;5068064;28;20015;-60
2022/07/22 09:47:40;;;;;;;;;;;;;;;20.34;64.52;101990.78;5075184;28;20023;-60
2022/07/22 09:50:13;;;;;;;;;;;;;;;20.45;64.65;101994.78;5070097;28;19920;-60
2022/07/22 09:52:40;;;;;;;;;;;;;;;20.60;63.24;101989.25;5064282;28;19947;-60
2022/07/22 09:55:06;;;;;;;;;;;;;;;20.65;62.22;101984.94;5069238;28;20512;-61
2022/07/22 09:57:31;;;;;;;;;;;;;;;20.80;64.06;101987.47;5066285;28;19920;-59
2022/07/22 09:59:57;;;;;;;;;;;;;;;20.92;62.26;101997.69;5067576;28;19920;-60
2022/07/22 10:02:22;;;;;;;;;;;;;;;20.93;57.65;101993.97;5073113;28;19943;-60
2022/07/22 10:04:48;;;;;;;;;;;;;;;20.62;61.43;101997.97;5065157;28;20127;-59
2022/07/22 10:07:13;;;;;;;;;;;;;;;20.52;61.57;101988.38;5069166;28;19921;-59
2022/07/22 10:09:39;;;;;;;;;;;;;;;20.72;61.13;101992.22;5070627;28;19965;-62
2022/07/22 10:12:06;;;;;;;;;;;;;;;20.81;60.68;101996.38;5063400;28;19928;-62
2022/07/22 10:14:32;;;;;;;;;;;;;;;20.70;61.00;102000.50;5063577;28;20468;-61
2022/07/22 10:16:58;;;;;;;;;;;;;;;20.67;60.55;101992.81;5064054;28;19920;-62
2022/07/22 10:19:23;;;;;;;;;;;;;;;20.59;60.65;101992.97;5065816;28;19973;-62
2022/07/22 10:21:48;;;;;;;;;;;;;;;20.55;60.94;101993.38;5064825;28;19936;-62
2022/07/22 10:24:17;;;;;;;;;;;;;;;20.66;61.37;101999.22;5063123;28;20551;-63
2022/07/22 10:26:46;;;;;;;;;;;;;;;20.80;59.88;102000.94;5065691;28;19920;-62
2022/07/22 10:29:23;;;;;;;;;;;;;;;20.90;61.28;101997.06;5066610;28;20023;-62
2022/07/22 10:31:49;;;;;;;;;;;;;;;20.92;59.11;102003.09;5065881;28;19925;-62
2022/07/22 10:34:14;;;;;;;;;;;;;;;20.82;60.81;101998.88;5066058;28;20272;-62
2022/07/22 10:36:42;;;;;;;;;;;;;;;20.91;58.97;102001.41;5063360;28;19931;-62
2022/07/22 10:39:09;;;;;;;;;;;;;;;20.95;58.00;101999.97;5064076;28;19923;-62
2022/07/22 10:41:40;;;;;;;;;;;;;;;20.98;57.25;102007.69;5067719;28;19935;-62
2022/07/22 10:44:05;;;;;;;;;;;;;;;20.94;58.57;102006.41;5063972;28;20430;-62
2022/07/22 10:46:50;;;;;;;;;;;;;;;21.03;59.00;101989.03;5066120;28;20054;-61
2022/07/22 10:49:16;;;;;;;;;;;;;;;21.20;58.42;101988.63;5062687;28;19966;-62
2022/07/22 10:52:02;;;;;;;;;;;;;;;21.22;58.69;101986.56;5065692;28;19944;-62
2022/07/22 10:54:27;;;;;;;;;;;;;;;21.14;59.21;101989.44;5063007;28;19966;-63
2022/07/22 10:56:54;;;;;;;;;;;;;;;21.20;58.43;101985.94;5063338;28;20387;-62
2022/07/22 10:59:21;;;;;;;;;;;;;;;21.23;58.61;101977.44;5063656;28;19950;-63
2022/07/22 11:01:50;;;;;;;;;;;;;;;21.21;59.03;101979.50;5065683;28;19929;-63
2022/07/22 11:04:23;;;;;;;;;;;;;;;21.09;57.59;101982.81;5064372;28;19927;-62
2022/07/22 11:06:50;;;;;;;;;;;;;;;20.92;58.50;101976.13;5069687;28;19932;-62
2022/07/22 11:09:16;;;;;;;;;;;;;;;20.91;58.01;101969.06;5070290;28;20435;-62
2022/07/22 11:11:47;;;;;;;;;;;;;;;20.74;57.85;101969.41;5067966;28;19928;-62
2022/07/22 11:14:13;;;;;;;;;;;;;;;20.59;58.37;101971.41;5068844;28;20066;-60
2022/07/22 11:16:38;;;;;;;;;;;;;;;20.42;57.96;101977.13;5067307;28;20389;-60
2022/07/22 11:19:03;;;;;;;;;;;;;;;20.40;58.95;101979.22;5071406;28;19921;-60
2022/07/22 11:21:29;;;;;;;;;;;;;;;20.40;59.79;101973.81;5069413;28;19920;-60
2022/07/22 11:23:56;;;;;;;;;;;;;;;20.49;58.80;101971.78;5064230;28;19955;-60
2022/07/22 11:26:26;;;;;;;;;;;;;;;20.58;59.40;101964.38;5065245;28;20295;-63
2022/07/22 11:28:51;;;;;;;;;;;;;;;20.77;58.16;101963.59;5067341;28;19921;-63
2022/07/22 11:31:17;;;;;;;;;;;;;;;20.92;58.42;101970.75;5065942;28;19920;-63
2022/07/22 11:33:43;;;;;;;;;;;;;;;21.18;57.53;101963.72;5069890;28;19944;-63
2022/07/22 11:36:09;;;;;;;;;;;;;;;21.35;57.62;101961.47;5059994;28;19920;-63
2022/07/22 11:38:45;;;;;;;;;;;;;;;21.55;56.38;101947.97;5069042;28;20041;-63
2022/07/22 11:41:10;;;;;;;;;;;;;;;21.73;55.63;101952.78;5071503;28;20346;-63
2022/07/22 11:43:47;;;;;;;;;;;;;;;21.79;56.07;101948.41;5064121;28;19921;-63
2022/07/22 11:46:13;;;;;;;;;;;;;;;21.94;55.08;101950.06;5070487;28;19920;-63
2022/07/22 11:48:39;;;;;;;;;;;;;;;21.91;51.73;101935.09;5069666;28;20268;-63
2022/07/22 11:51:05;;;;;;;;;;;;;;;22.03;55.27;101919.06;5072849;28;19920;-63
2022/07/22 11:53:31;;;;;;;;;;;;;;;22.04;54.43;101918.00;5074756;28;19917;-63
2022/07/22 11:55:59;;;;;;;;;;;;;;;22.19;54.00;101915.06;5074702;28;20433;-63
2022/07/22 11:58:33;;;;;;;;;;;;;;;22.09;52.80;101915.50;5076308;28;19921;-63
2022/07/22 12:00:58;;;;;;;;;;;;;;;22.01;55.17;101907.66;5072733;28;19928;-63
2022/07/22 12:03:23;;;;;;;;;;;;;;;22.23;55.17;101912.75;5074123;28;19923;-63
2022/07/22 12:05:49;;;;;;;;;;;;;;;22.38;52.83;101909.78;5072129;28;19921;-63
2022/07/22 12:08:14;;;;;;;;;;;;;;;22.33;54.11;101905.03;5076025;28;20277;-63
2022/07/22 12:10:39;;;;;;;;;;;;;;;22.41;52.59;101902.06;5074287;28;19916;-63
2022/07/22 12:13:04;;;;;;;;;;;;;;;22.16;52.43;101902.81;5073606;28;20031;-63
2022/07/22 12:15:30;;;;;;;;;;;;;;;22.09;53.48;101899.31;5075263;28;19959;-63
2022/07/22 12:18:13;;;;;;;;;;;;;;;22.09;52.89;101893.91;5073365;28;19951;-63
2022/07/22 12:20:45;;;;;;;;;;;;;;;22.23;54.00;101888.44;5074428;28;19959;-63
2022/07/22 12:23:10;;;;;;;;;;;;;;;22.29;53.94;101893.81;5073755;28;19916;-63
2022/07/22 12:25:49;;;;;;;;;;;;;;;22.24;53.97;101890.09;5068731;28;19928;-63
2022/07/22 12:28:14;;;;;;;;;;;;;;;22.25;52.42;101894.47;5070428;28;20391;-63
2022/07/22 12:30:39;;;;;;;;;;;;;;;22.13;53.73;101892.44;5065555;28;20003;-63